createdAt,value
2022-12-31T00:00:38.721Z,12.62
2022-12-31T00:05:58.279Z,12.68
2022-12-31T00:11:17.800Z,12.7
2022-12-31T00:16:37.178Z,12.75
2022-12-31T00:21:56.765Z,12.83
2022-12-31T00:27:15.946Z,12.88
2022-12-31T00:32:35.667Z,13.02
2022-12-31T00:37:54.610Z,13.03
2022-12-31T00:43:14.094Z,13.03
2022-12-31T00:48:32.813Z,12.83
2022-12-31T00:53:52.499Z,12.72
2022-12-31T00:59:11.462Z,12.63
2022-12-31T01:04:30.375Z,12.32
2022-12-31T01:09:49.476Z,12.17
2022-12-31T01:15:08.740Z,12.01
2022-12-31T01:20:27.987Z,11.97
2022-12-31T01:25:47.437Z,11.91
2022-12-31T01:31:06.969Z,11.95
2022-12-31T01:36:26.561Z,11.94
2022-12-31T01:41:45.141Z,12.05
2022-12-31T01:47:03.947Z,12.1
2022-12-31T01:52:22.966Z,12.16
2022-12-31T01:57:42.410Z,12.21
2022-12-31T02:03:02.552Z,12.22
2022-12-31T02:09:36.667Z,12.29
2022-12-31T02:13:41.339Z,12.52
2022-12-31T02:19:00.751Z,12.7
2022-12-31T02:24:18.965Z,12.92
2022-12-31T02:29:38.152Z,13.11
2022-12-31T02:34:57.072Z,13.14
2022-12-31T02:40:15.951Z,13.07
2022-12-31T02:45:34.875Z,13.1
2022-12-31T02:50:53.853Z,13.1
2022-12-31T02:56:12.701Z,13.03
2022-12-31T03:01:32.077Z,13.07
2022-12-31T03:06:51.552Z,13.19
2022-12-31T03:12:10.951Z,13.02
2022-12-31T03:17:30.192Z,13.02
2022-12-31T03:22:49.060Z,12.97
2022-12-31T03:28:08.481Z,13.04
2022-12-31T03:33:27.902Z,13.13
2022-12-31T03:38:51.159Z,13.23
2022-12-31T03:44:06.073Z,13.37
2022-12-31T03:49:25.070Z,13.46
2022-12-31T03:54:45.033Z,13.33
2022-12-31T04:00:04.402Z,13.46
2022-12-31T04:05:24.081Z,13.61
2022-12-31T04:10:42.101Z,13.71
2022-12-31T04:16:01.254Z,13.65
2022-12-31T04:21:20.525Z,13.75
2022-12-31T04:26:39.855Z,13.67
2022-12-31T04:31:59.250Z,13.78
2022-12-31T04:37:18.866Z,13.78
2022-12-31T04:42:37.807Z,13.75
2022-12-31T04:47:57.283Z,13.86
2022-12-31T04:53:16.381Z,13.91
2022-12-31T04:58:35.703Z,13.88
2022-12-31T05:03:56.095Z,13.88
2022-12-31T05:09:14.412Z,13.97
2022-12-31T05:14:34.132Z,13.99
2022-12-31T05:19:52.808Z,14.06
2022-12-31T05:25:11.751Z,14.18
2022-12-31T05:30:31.408Z,14.28
2022-12-31T05:35:51.206Z,14.36
2022-12-31T05:41:10.847Z,14.37
2022-12-31T05:46:30.208Z,14.39
2022-12-31T05:51:49.223Z,14.34
2022-12-31T05:57:08.982Z,14.34
2022-12-31T06:02:28.294Z,14.36
2022-12-31T06:07:47.600Z,14.36
2022-12-31T06:13:07.204Z,14.49
2022-12-31T06:18:25.931Z,14.59
2022-12-31T06:23:44.686Z,14.76
2022-12-31T06:29:03.477Z,14.7
2022-12-31T06:34:22.821Z,14.6
2022-12-31T06:39:41.892Z,14.77
2022-12-31T06:45:01.134Z,14.94
2022-12-31T06:50:20.752Z,15.11
2022-12-31T06:55:40.252Z,15.14
2022-12-31T07:00:59.556Z,15.14
2022-12-31T07:06:18.510Z,15.25
2022-12-31T07:11:37.973Z,15.25
2022-12-31T07:16:56.891Z,15.25
2022-12-31T07:22:15.711Z,15.32
2022-12-31T07:27:34.918Z,15.34
2022-12-31T07:32:53.980Z,15.29
2022-12-31T07:38:12.819Z,15.45
2022-12-31T07:43:32.288Z,15.45
2022-12-31T07:48:51.782Z,15.4
2022-12-31T07:54:14.056Z,15.39
2022-12-31T07:59:29.924Z,15.36
2022-12-31T08:04:49.888Z,15.28
2022-12-31T08:10:11.270Z,15.35
2022-12-31T08:15:30.468Z,15.52
2022-12-31T08:20:47.355Z,15.56
2022-12-31T08:26:07.001Z,15.69
2022-12-31T08:31:25.993Z,15.66
2022-12-31T08:36:46.281Z,15.6
2022-12-31T08:42:05.165Z,15.66
2022-12-31T08:47:24.046Z,15.66
2022-12-31T08:52:43.391Z,15.66
2022-12-31T08:58:02.645Z,15.73
2022-12-31T09:03:22.043Z,15.93
2022-12-31T09:08:41.101Z,16.14
2022-12-31T09:14:00.638Z,16.32
2022-12-31T09:19:19.674Z,16.46
2022-12-31T09:24:38.641Z,16.42
2022-12-31T09:29:58.376Z,16.57
2022-12-31T09:35:17.726Z,16.69
2022-12-31T09:40:37.283Z,16.65
2022-12-31T09:45:56.598Z,16.69
2022-12-31T09:51:17.117Z,16.78
2022-12-31T09:56:34.763Z,16.7
2022-12-31T10:01:54.305Z,16.62
2022-12-31T10:07:13.799Z,16.58
2022-12-31T10:12:33.161Z,16.48
2022-12-31T10:17:51.333Z,16.57
2022-12-31T10:23:10.482Z,16.49
2022-12-31T10:28:30.672Z,16.45
2022-12-31T10:33:49.839Z,16.52
2022-12-31T10:39:14.324Z,16.68
2022-12-31T10:44:28.080Z,16.65
2022-12-31T10:49:47.233Z,16.61
2022-12-31T10:55:06.694Z,16.92
2022-12-31T11:00:25.598Z,17
2022-12-31T11:05:44.889Z,17.09
2022-12-31T11:11:04.492Z,17.46
2022-12-31T11:16:23.496Z,17.78
2022-12-31T11:21:43.093Z,17.85
2022-12-31T11:27:02.138Z,17.95
2022-12-31T11:32:21.165Z,18.1
2022-12-31T11:37:40.187Z,18.06
2022-12-31T11:42:59.162Z,17.94
2022-12-31T11:48:29.986Z,17.98
2022-12-31T11:58:56.817Z,18.1
2022-12-31T12:04:15.937Z,18.09
2022-12-31T12:09:34.932Z,18.19
2022-12-31T12:14:54.296Z,18.19
2022-12-31T12:20:13.470Z,18.28
2022-12-31T12:25:32.405Z,18.25
2022-12-31T12:30:51.963Z,18.29
2022-12-31T12:36:10.823Z,18.35
2022-12-31T12:41:30.031Z,18.25
2022-12-31T12:46:48.888Z,18.21
2022-12-31T12:53:23.049Z,18.24
2022-12-31T12:57:28.456Z,18.18
2022-12-31T13:02:46.943Z,18.12
2022-12-31T13:08:05.841Z,18.01
2022-12-31T13:13:25.365Z,17.96
2022-12-31T13:18:44.758Z,18.06
2022-12-31T13:24:03.641Z,18.16
2022-12-31T13:29:22.868Z,18.19
2022-12-31T13:29:48.869Z,18.36
2022-12-31T13:35:07.874Z,18.12
2022-12-31T13:40:27.500Z,18.09
2022-12-31T13:45:46.890Z,18.04
2022-12-31T13:51:05.617Z,18.04
2022-12-31T13:56:25.068Z,17.95
2022-12-31T14:01:45.244Z,17.84
2022-12-31T14:07:04.790Z,17.74
2022-12-31T14:12:24.013Z,17.68
2022-12-31T14:17:42.070Z,17.6
2022-12-31T14:23:01.356Z,17.62
2022-12-31T14:28:20.369Z,17.53
2022-12-31T14:33:39.533Z,17.48
2022-12-31T14:38:58.275Z,17.46
2022-12-31T14:44:17.062Z,17.43
2022-12-31T14:49:36.022Z,17.37
2022-12-31T14:54:55.407Z,17.31
2022-12-31T15:00:14.585Z,17.16
2022-12-31T15:05:34.129Z,17.19
2022-12-31T15:10:52.931Z,17.09
2022-12-31T15:16:12.917Z,17.17
2022-12-31T15:21:31.217Z,17.12
2022-12-31T15:26:50.114Z,17.06
2022-12-31T15:32:09.056Z,16.99
2022-12-31T15:37:28.659Z,16.93
2022-12-31T15:42:50.186Z,16.83
2022-12-31T15:48:07.673Z,16.78
2022-12-31T15:53:26.859Z,16.71
2022-12-31T15:58:45.801Z,16.52
2022-12-31T16:04:04.725Z,16.41
2022-12-31T16:09:23.518Z,16.41
2022-12-31T16:14:42.449Z,16.48
2022-12-31T16:20:01.914Z,16.46
2022-12-31T16:25:31.809Z,16.44
2022-12-31T16:30:40.543Z,16.37
2022-12-31T16:36:00.003Z,16.41
2022-12-31T16:41:19.416Z,16.45
2022-12-31T16:46:38.840Z,16.49
2022-12-31T16:51:57.583Z,16.49
2022-12-31T16:57:17.211Z,16.51
2022-12-31T17:02:36.226Z,16.54
2022-12-31T17:07:54.951Z,16.54
2022-12-31T17:13:26.702Z,16.41
2022-12-31T17:18:34.038Z,16.37
2022-12-31T17:23:53.639Z,16.28
2022-12-31T17:29:12.604Z,16.2
2022-12-31T17:34:31.526Z,16.11
2022-12-31T17:39:50.564Z,16.08
2022-12-31T17:45:09.400Z,16.04
2022-12-31T17:50:28.558Z,15.99
2022-12-31T17:55:47.467Z,15.99
2022-12-31T18:01:06.348Z,16.03
2022-12-31T18:06:25.732Z,15.97
2022-12-31T18:11:44.907Z,15.9
2022-12-31T18:17:04.469Z,15.93
2022-12-31T18:22:23.874Z,15.97
2022-12-31T18:27:42.661Z,15.94
2022-12-31T18:33:02.298Z,15.89
2022-12-31T18:38:22.065Z,15.85
2022-12-31T18:43:41.677Z,15.82
2022-12-31T18:49:00.826Z,15.79
2022-12-31T18:54:19.832Z,15.77
2022-12-31T18:59:38.608Z,15.85
2022-12-31T19:04:57.872Z,15.8
2022-12-31T19:10:17.580Z,15.71
2022-12-31T19:15:37.086Z,15.7
2022-12-31T19:20:56.642Z,15.65
2022-12-31T19:26:16.028Z,15.6
2022-12-31T19:31:35.640Z,15.58
2022-12-31T19:36:54.905Z,15.58
2022-12-31T19:42:14.125Z,15.5
2022-12-31T19:47:33.175Z,15.46
2022-12-31T19:52:52.354Z,15.38
2022-12-31T19:58:11.872Z,15.36
2022-12-31T20:03:31.476Z,15.31
2022-12-31T20:08:50.431Z,15.31
2022-12-31T20:14:09.798Z,15.22
2022-12-31T20:19:28.785Z,15.17
2022-12-31T20:24:47.753Z,15.21
2022-12-31T20:30:07.013Z,15.22
2022-12-31T20:35:25.763Z,15.24
2022-12-31T20:40:46.838Z,15.19
2022-12-31T20:46:04.764Z,15.21
2022-12-31T20:51:23.045Z,15.14
2022-12-31T20:56:42.360Z,15.04
2022-12-31T21:02:21.865Z,15.11
2022-12-31T21:07:21.445Z,15.22
2022-12-31T21:12:41.399Z,15.14
2022-12-31T21:17:59.680Z,15.04
2022-12-31T21:23:18.877Z,14.97
2022-12-31T21:28:37.777Z,14.97
2022-12-31T21:33:57.357Z,14.97
2022-12-31T21:39:16.237Z,14.95
2022-12-31T21:44:35.266Z,14.91
2022-12-31T21:49:54.924Z,14.84
2022-12-31T21:55:14.312Z,14.73
2022-12-31T22:00:42.120Z,14.66
2022-12-31T22:05:53.297Z,14.67
2022-12-31T22:11:12.519Z,14.59
2022-12-31T22:16:31.324Z,14.55
2022-12-31T22:21:50.427Z,14.49
2022-12-31T22:27:27.899Z,14.51
2022-12-31T22:32:28.963Z,14.51
2022-12-31T22:37:56.713Z,14.5
2022-12-31T22:43:07.185Z,14.61
2022-12-31T22:48:26.838Z,14.78
2022-12-31T22:53:45.937Z,14.92
2022-12-31T22:59:05.221Z,14.92
2022-12-31T23:04:24.856Z,14.91
2022-12-31T23:09:43.530Z,14.92
2022-12-31T23:15:03.050Z,14.81
2022-12-31T23:20:21.994Z,14.83
2022-12-31T23:25:40.923Z,14.7
2022-12-31T23:30:59.782Z,14.66
2022-12-31T23:36:19.175Z,14.59
2022-12-31T23:41:37.981Z,14.47
2022-12-31T23:46:56.799Z,14.37
2022-12-31T23:52:15.369Z,14.34
2022-12-31T23:57:34.870Z,14.46
